createdAt,value
2023-03-06T00:02:34.841Z,3.5
2023-03-06T00:07:35.059Z,3.5
2023-03-06T00:12:34.811Z,3.5
2023-03-06T00:17:34.801Z,3.5
2023-03-06T00:22:34.781Z,3.5
2023-03-06T00:27:34.766Z,3.5
2023-03-06T00:32:34.744Z,3.5
2023-03-06T00:37:34.829Z,3.5
2023-03-06T00:42:34.739Z,3.5
2023-03-06T00:47:34.689Z,3.5
2023-03-06T00:52:34.673Z,3.5
2023-03-06T00:57:34.650Z,3.5
2023-03-06T01:02:34.634Z,3.4
2023-03-06T01:07:34.621Z,3.4
2023-03-06T01:12:34.602Z,3.4
2023-03-06T01:17:34.582Z,3.4
2023-03-06T01:22:34.580Z,3.4
2023-03-06T01:27:34.582Z,3.4
2023-03-06T01:32:34.531Z,3.4
2023-03-06T01:37:34.509Z,3.3
2023-03-06T01:42:34.560Z,3.3
2023-03-06T01:47:34.526Z,3.3
2023-03-06T01:52:34.467Z,3.3
2023-03-06T01:57:34.450Z,3.3
2023-03-06T02:02:34.427Z,3.3
2023-03-06T02:07:34.410Z,3.2
2023-03-06T02:12:34.407Z,3.2
2023-03-06T02:17:34.382Z,3.2
2023-03-06T02:22:34.386Z,3.2
2023-03-06T02:27:34.346Z,3.2
2023-03-06T02:32:34.331Z,3.2
2023-03-06T02:37:34.308Z,3.2
2023-03-06T02:42:34.336Z,3.2
2023-03-06T02:47:34.276Z,3.1
2023-03-06T02:52:34.254Z,3.1
2023-03-06T02:57:34.282Z,3.1
2023-03-06T03:02:34.205Z,3.1
2023-03-06T03:07:34.209Z,3.1
2023-03-06T03:12:34.190Z,3.1
2023-03-06T03:17:34.165Z,3.1
2023-03-06T03:22:34.172Z,3.1
2023-03-06T03:27:34.138Z,3.1
2023-03-06T03:32:34.120Z,3.1
2023-03-06T03:37:34.094Z,3.1
2023-03-06T03:42:34.089Z,3
2023-03-06T03:47:34.070Z,3
2023-03-06T03:52:34.054Z,3
2023-03-06T03:57:34.023Z,3
2023-03-06T04:02:34.011Z,3
2023-03-06T04:07:33.995Z,3
2023-03-06T04:12:33.971Z,2.9
2023-03-06T04:17:34.007Z,2.9
2023-03-06T04:22:33.937Z,2.9
2023-03-06T04:27:33.926Z,2.9
2023-03-06T04:32:33.904Z,2.9
2023-03-06T04:37:33.893Z,2.9
2023-03-06T04:42:33.926Z,2.9
2023-03-06T04:47:33.871Z,2.9
2023-03-06T04:52:33.854Z,2.8
2023-03-06T04:57:33.828Z,2.8
2023-03-06T05:02:33.811Z,2.8
2023-03-06T05:07:33.790Z,2.8
2023-03-06T05:12:33.766Z,2.8
2023-03-06T05:17:33.752Z,2.8
2023-03-06T05:22:33.732Z,2.8
2023-03-06T05:27:33.719Z,2.8
2023-03-06T05:32:33.698Z,2.8
2023-03-06T05:37:33.688Z,2.8
2023-03-06T05:42:33.714Z,2.7
2023-03-06T05:47:33.663Z,2.7
2023-03-06T05:52:33.637Z,2.7
2023-03-06T05:57:33.638Z,2.7
2023-03-06T06:02:33.600Z,2.7
2023-03-06T06:07:33.576Z,2.7
2023-03-06T06:12:33.563Z,2.7
2023-03-06T06:17:33.543Z,2.7
2023-03-06T06:22:33.529Z,2.7
2023-03-06T06:27:33.510Z,2.7
2023-03-06T06:32:33.477Z,2.8
2023-03-06T06:37:33.511Z,2.7
2023-03-06T06:42:33.506Z,2.7
2023-03-06T06:47:33.593Z,2.8
2023-03-06T06:52:33.578Z,2.8
2023-03-06T06:57:33.586Z,2.8
2023-03-06T07:02:33.409Z,2.8
2023-03-06T07:07:33.547Z,2.9
2023-03-06T07:12:33.510Z,2.9
2023-03-06T07:17:33.557Z,2.9
2023-03-06T07:22:33.482Z,3
2023-03-06T07:27:33.578Z,3
2023-03-06T07:32:33.464Z,3.1
2023-03-06T07:37:33.272Z,3.1
2023-03-06T07:42:33.255Z,3.2
2023-03-06T07:47:33.423Z,3.2
2023-03-06T07:52:33.378Z,3.3
2023-03-06T07:57:33.363Z,3.3
2023-03-06T08:02:33.343Z,3.3
2023-03-06T08:07:33.314Z,3.4
2023-03-06T08:12:33.228Z,3.4
2023-03-06T08:17:33.301Z,3.5
2023-03-06T08:22:33.263Z,3.6
2023-03-06T08:27:33.209Z,3.7
2023-03-06T08:32:33.134Z,3.8
2023-03-06T08:37:33.190Z,3.8
2023-03-06T08:42:33.038Z,3.9
2023-03-06T08:47:33.181Z,4
2023-03-06T08:52:33.168Z,4
2023-03-06T08:57:33.104Z,4.1
2023-03-06T09:02:33.008Z,4.1
2023-03-06T09:07:33.141Z,4.2
2023-03-06T09:12:33.019Z,4.2
2023-03-06T09:17:32.923Z,4.1
2023-03-06T09:22:32.914Z,4.1
2023-03-06T09:27:32.935Z,4.1
2023-03-06T09:32:32.870Z,4.2
2023-03-06T09:37:33.102Z,4.3
2023-03-06T09:42:32.995Z,4.3
2023-03-06T09:47:32.986Z,4.4
2023-03-06T09:52:32.946Z,4.4
2023-03-06T09:57:32.909Z,4.4
2023-03-06T10:02:32.827Z,4.5
2023-03-06T10:07:32.850Z,4.5
2023-03-06T10:12:32.804Z,4.6
2023-03-06T10:17:32.829Z,4.6
2023-03-06T10:22:32.688Z,4.7
2023-03-06T10:27:32.791Z,4.8
2023-03-06T10:32:32.669Z,4.9
2023-03-06T10:37:32.640Z,5
2023-03-06T10:42:32.710Z,5
2023-03-06T10:47:32.717Z,5
2023-03-06T10:52:32.701Z,5.2
2023-03-06T10:57:32.641Z,5.3
2023-03-06T11:02:32.680Z,5.3
2023-03-06T11:07:32.629Z,5.4
2023-03-06T11:12:32.547Z,5.5
2023-03-06T11:17:32.486Z,5.6
2023-03-06T11:22:32.471Z,5.6
2023-03-06T11:27:32.461Z,5.7
2023-03-06T11:32:32.510Z,5.8
2023-03-06T11:37:32.442Z,5.8
2023-03-06T11:42:32.449Z,5.9
2023-03-06T11:47:32.381Z,5.9
2023-03-06T11:52:32.364Z,6
2023-03-06T11:57:32.362Z,5.9
2023-03-06T12:02:32.328Z,5.9
2023-03-06T12:07:32.376Z,5.9
2023-03-06T12:12:32.326Z,5.9
2023-03-06T12:17:32.268Z,5.9
2023-03-06T12:22:32.255Z,5.9
2023-03-06T12:27:32.248Z,6
2023-03-06T12:37:32.191Z,6.1
2023-03-06T12:42:32.227Z,6
2023-03-06T12:47:32.175Z,6.1
2023-03-06T12:52:32.264Z,6.1
2023-03-06T12:57:32.139Z,6
2023-03-06T13:02:32.205Z,5.9
2023-03-06T13:07:32.089Z,5.9
2023-03-06T13:12:32.111Z,5.9
2023-03-06T13:17:32.070Z,5.8
2023-03-06T13:22:32.069Z,5.7
2023-03-06T13:27:32.019Z,5.6
2023-03-06T13:32:32.068Z,5.6
2023-03-06T13:37:32.074Z,5.6
2023-03-06T13:42:32.064Z,5.5
2023-03-06T13:47:31.953Z,5.5
2023-03-06T13:52:32.075Z,5.5
2023-03-06T13:57:32.062Z,5.5
2023-03-06T14:02:31.980Z,5.5
2023-03-06T14:07:32.060Z,5.4
2023-03-06T14:12:32.025Z,5.4
2023-03-06T14:17:31.987Z,5.3
2023-03-06T14:22:31.890Z,5.4
2023-03-06T14:27:31.789Z,5.4
2023-03-06T14:32:31.941Z,5.4
2023-03-06T14:37:31.744Z,5.4
2023-03-06T14:42:31.910Z,5.4
2023-03-06T14:47:31.885Z,5.5
2023-03-06T14:52:31.860Z,5.5
2023-03-06T14:57:31.806Z,5.4
2023-03-06T15:02:31.887Z,5.5
2023-03-06T15:07:31.744Z,5.5
2023-03-06T15:12:31.642Z,5.5
2023-03-06T15:17:31.681Z,5.5
2023-03-06T15:22:31.576Z,5.5
2023-03-06T15:27:31.575Z,5.5
2023-03-06T15:32:31.615Z,5.5
2023-03-06T15:37:31.688Z,5.5
2023-03-06T15:42:31.681Z,5.5
2023-03-06T15:47:31.485Z,5.5
2023-03-06T15:52:31.489Z,5.5
2023-03-06T15:57:31.576Z,5.5
2023-03-06T16:02:31.450Z,5.4
2023-03-06T16:07:31.628Z,5.4
2023-03-06T16:12:31.621Z,5.4
2023-03-06T16:17:31.495Z,5.3
2023-03-06T16:22:31.415Z,5.3
2023-03-06T16:27:31.409Z,5.3
2023-03-06T16:32:31.401Z,5.3
2023-03-06T16:37:31.303Z,5.2
2023-03-06T16:42:31.395Z,5.2
2023-03-06T16:47:31.428Z,5.2
2023-03-06T16:52:31.342Z,5.1
2023-03-06T16:57:31.233Z,5.1
2023-03-06T17:02:31.241Z,5.1
2023-03-06T17:07:31.287Z,5
2023-03-06T17:12:31.217Z,5
2023-03-06T17:17:31.167Z,4.9
2023-03-06T17:22:31.212Z,4.8
2023-03-06T17:27:31.142Z,4.8
2023-03-06T17:32:31.149Z,4.7
2023-03-06T17:37:31.112Z,4.7
2023-03-06T17:42:31.082Z,4.6
2023-03-06T17:47:31.059Z,4.5
2023-03-06T17:52:31.037Z,4.5
2023-03-06T17:57:31.093Z,4.4
2023-03-06T18:02:31.013Z,4.4
2023-03-06T18:07:30.995Z,4.4
2023-03-06T18:12:30.967Z,4.3
2023-03-06T18:17:30.951Z,4.3
2023-03-06T18:22:30.937Z,4.3
2023-03-06T18:27:30.918Z,4.2
2023-03-06T18:32:30.906Z,4.2
2023-03-06T18:37:30.921Z,4.2
2023-03-06T18:42:30.860Z,4.2
2023-03-06T18:47:30.837Z,4.1
2023-03-06T18:52:30.835Z,4.1
2023-03-06T18:57:30.796Z,4.1
2023-03-06T19:02:30.817Z,4.1
2023-03-06T19:07:30.814Z,4
2023-03-06T19:12:30.806Z,4
2023-03-06T19:17:30.736Z,4
2023-03-06T19:22:30.741Z,4
2023-03-06T19:27:30.713Z,4
2023-03-06T19:32:30.686Z,3.9
2023-03-06T19:37:30.702Z,3.9
2023-03-06T19:42:30.657Z,3.9
2023-03-06T19:47:30.643Z,3.9
2023-03-06T19:52:30.631Z,3.9
2023-03-06T19:57:30.634Z,3.8
2023-03-06T20:02:30.599Z,3.9
2023-03-06T20:07:30.583Z,3.8
2023-03-06T20:12:30.555Z,3.8
2023-03-06T20:17:30.546Z,3.8
2023-03-06T20:22:30.510Z,3.8
2023-03-06T20:27:30.500Z,3.8
2023-03-06T20:32:30.473Z,3.8
2023-03-06T20:37:30.450Z,3.8
2023-03-06T20:42:30.440Z,3.7
2023-03-06T20:47:30.412Z,3.7
2023-03-06T20:52:30.416Z,3.7
2023-03-06T20:57:30.399Z,3.7
2023-03-06T21:02:30.380Z,3.7
2023-03-06T21:07:30.377Z,3.7
2023-03-06T21:12:30.352Z,3.7
2023-03-06T21:17:30.317Z,3.7
2023-03-06T21:22:30.296Z,3.7
2023-03-06T21:27:30.281Z,3.7
2023-03-06T21:32:30.261Z,3.7
2023-03-06T21:37:30.313Z,3.8
2023-03-06T21:42:30.253Z,3.7
2023-03-06T21:47:30.220Z,3.8
2023-03-06T21:52:30.195Z,3.8
2023-03-06T21:57:30.176Z,3.7
2023-03-06T22:02:30.183Z,3.7
2023-03-06T22:07:30.148Z,3.7
2023-03-06T22:12:30.126Z,3.7
2023-03-06T22:17:30.118Z,3.6
2023-03-06T22:22:30.137Z,3.7
2023-03-06T22:27:30.085Z,3.6
2023-03-06T22:32:30.058Z,3.7
2023-03-06T22:37:30.036Z,3.6
2023-03-06T22:42:30.019Z,3.6
2023-03-06T22:47:30.026Z,3.6
2023-03-06T22:52:29.976Z,3.6
2023-03-06T22:57:29.963Z,3.6
2023-03-06T23:02:30.081Z,3.6
2023-03-06T23:07:29.923Z,3.6
2023-03-06T23:12:29.915Z,3.5
2023-03-06T23:17:29.904Z,3.5
2023-03-06T23:22:29.933Z,3.4
2023-03-06T23:27:29.867Z,3.4
2023-03-06T23:32:29.844Z,3.4
2023-03-06T23:37:29.830Z,3.3
2023-03-06T23:42:29.804Z,3.3
2023-03-06T23:47:29.844Z,3.3
2023-03-06T23:52:29.806Z,3.3
2023-03-06T23:57:29.762Z,3.3
